sensor_id;sensor_type;location;lat;lon;timestamp;pressure;altitude;pressure_sealevel;temperature;humidity
34500;BME280;20745;50.882;6.962;2023-01-29T00:00:01;102453.75;;;-0.38;100.00
34500;BME280;20745;50.882;6.962;2023-01-29T00:02:27;102444.28;;;-0.44;100.00
34500;BME280;20745;50.882;6.962;2023-01-29T00:04:53;102442.63;;;-0.46;100.00
34500;BME280;20745;50.882;6.962;2023-01-29T00:07:24;102438.38;;;-0.50;100.00
34500;BME280;20745;50.882;6.962;2023-01-29T00:09:51;102435.88;;;-0.53;100.00
34500;BME280;20745;50.882;6.962;2023-01-29T00:12:17;102442.03;;;-0.53;100.00
34500;BME280;20745;50.882;6.962;2023-01-29T00:14:43;102442.31;;;-0.40;100.00
34500;BME280;20745;50.882;6.962;2023-01-29T00:17:10;102439.19;;;-0.30;100.00
34500;BME280;20745;50.882;6.962;2023-01-29T00:19:36;102438.25;;;-0.29;100.00
34500;BME280;20745;50.882;6.962;2023-01-29T00:22:02;102443.06;;;-0.18;100.00
34500;BME280;20745;50.882;6.962;2023-01-29T00:24:29;102435.91;;;-0.16;100.00
34500;BME280;20745;50.882;6.962;2023-01-29T00:26:55;102425.78;;;-0.27;100.00
34500;BME280;20745;50.882;6.962;2023-01-29T00:29:24;102427.22;;;-0.20;100.00
34500;BME280;20745;50.882;6.962;2023-01-29T00:31:52;102415.66;;;-0.19;100.00
34500;BME280;20745;50.882;6.962;2023-01-29T00:34:19;102411.50;;;-0.24;100.00
34500;BME280;20745;50.882;6.962;2023-01-29T00:36:46;102417.88;;;-0.28;100.00
34500;BME280;20745;50.882;6.962;2023-01-29T00:39:15;102411.94;;;-0.33;100.00
34500;BME280;20745;50.882;6.962;2023-01-29T00:41:41;102408.47;;;-0.35;100.00
34500;BME280;20745;50.882;6.962;2023-01-29T00:44:26;102404.88;;;-0.34;100.00
34500;BME280;20745;50.882;6.962;2023-01-29T00:47:17;102405.34;;;-0.43;100.00
34500;BME280;20745;50.882;6.962;2023-01-29T00:49:56;102403.59;;;-0.44;100.00
34500;BME280;20745;50.882;6.962;2023-01-29T00:52:25;102401.59;;;-0.39;100.00
34500;BME280;20745;50.882;6.962;2023-01-29T00:54:52;102396.56;;;-0.45;100.00
34500;BME280;20745;50.882;6.962;2023-01-29T00:57:19;102389.75;;;-0.51;100.00
34500;BME280;20745;50.882;6.962;2023-01-29T00:59:47;102388.59;;;-0.45;100.00
34500;BME280;20745;50.882;6.962;2023-01-29T01:02:14;102390.41;;;-0.46;100.00
34500;BME280;20745;50.882;6.962;2023-01-29T01:04:59;102392.22;;;-0.46;100.00
34500;BME280;20745;50.882;6.962;2023-01-29T01:07:28;102393.91;;;-0.45;100.00
34500;BME280;20745;50.882;6.962;2023-01-29T01:09:54;102388.88;;;-0.51;100.00
34500;BME280;20745;50.882;6.962;2023-01-29T01:12:40;102390.78;;;-0.53;100.00
34500;BME280;20745;50.882;6.962;2023-01-29T01:15:08;102392.56;;;-0.54;100.00
34500;BME280;20745;50.882;6.962;2023-01-29T01:17:34;102399.13;;;-0.62;100.00
34500;BME280;20745;50.882;6.962;2023-01-29T01:20:01;102393.75;;;-0.61;100.00
34500;BME280;20745;50.882;6.962;2023-01-29T01:22:28;102389.31;;;-0.60;100.00
34500;BME280;20745;50.882;6.962;2023-01-29T01:24:55;102387.84;;;-0.67;100.00
34500;BME280;20745;50.882;6.962;2023-01-29T01:27:24;102390.50;;;-0.67;100.00
34500;BME280;20745;50.882;6.962;2023-01-29T01:29:51;102390.81;;;-0.73;100.00
34500;BME280;20745;50.882;6.962;2023-01-29T01:32:17;102384.91;;;-0.80;100.00
34500;BME280;20745;50.882;6.962;2023-01-29T01:34:48;102390.66;;;-0.70;100.00
34500;BME280;20745;50.882;6.962;2023-01-29T01:37:14;102388.16;;;-0.73;100.00
34500;BME280;20745;50.882;6.962;2023-01-29T01:39:41;102395.38;;;-0.77;100.00
34500;BME280;20745;50.882;6.962;2023-01-29T01:42:10;102395.66;;;-0.83;100.00
34500;BME280;20745;50.882;6.962;2023-01-29T01:44:54;102401.59;;;-0.96;100.00
34500;BME280;20745;50.882;6.962;2023-01-29T01:47:24;102413.28;;;-1.02;100.00
34500;BME280;20745;50.882;6.962;2023-01-29T01:49:53;102407.78;;;-0.97;100.00
34500;BME280;20745;50.882;6.962;2023-01-29T01:52:22;102404.38;;;-0.99;100.00
34500;BME280;20745;50.882;6.962;2023-01-29T01:54:48;102410.38;;;-0.96;100.00
34500;BME280;20745;50.882;6.962;2023-01-29T01:57:17;102403.38;;;-0.97;100.00
34500;BME280;20745;50.882;6.962;2023-01-29T02:00:04;102403.94;;;-0.90;100.00
34500;BME280;20745;50.882;6.962;2023-01-29T02:02:37;102389.66;;;-0.86;100.00
34500;BME280;20745;50.882;6.962;2023-01-29T02:05:24;102385.31;;;-0.89;100.00
34500;BME280;20745;50.882;6.962;2023-01-29T02:08:10;102378.28;;;-0.90;100.00
34500;BME280;20745;50.882;6.962;2023-01-29T02:10:59;102376.84;;;-0.97;100.00
34500;BME280;20745;50.882;6.962;2023-01-29T02:13:27;102370.47;;;-0.93;100.00
34500;BME280;20745;50.882;6.962;2023-01-29T02:15:55;102364.91;;;-0.87;100.00
34500;BME280;20745;50.882;6.962;2023-01-29T02:18:21;102367.56;;;-0.87;100.00
34500;BME280;20745;50.882;6.962;2023-01-29T02:21:01;102379.16;;;-0.89;100.00
34500;BME280;20745;50.882;6.962;2023-01-29T02:23:39;102386.78;;;-1.02;100.00
34500;BME280;20745;50.882;6.962;2023-01-29T02:26:20;102390.56;;;-1.07;100.00
34500;BME280;20745;50.882;6.962;2023-01-29T02:28:57;102383.56;;;-1.08;100.00
34500;BME280;20745;50.882;6.962;2023-01-29T02:34:43;102390.84;;;-1.13;100.00
34500;BME280;20745;50.882;6.962;2023-01-29T02:37:38;102395.75;;;-1.04;100.00
34500;BME280;20745;50.882;6.962;2023-01-29T02:42:45;102386.00;;;-1.04;100.00
34500;BME280;20745;50.882;6.962;2023-01-29T02:45:18;102394.09;;;-1.07;100.00
34500;BME280;20745;50.882;6.962;2023-01-29T02:47:47;102396.69;;;-1.05;100.00
34500;BME280;20745;50.882;6.962;2023-01-29T02:50:18;102393.97;;;-1.04;100.00
34500;BME280;20745;50.882;6.962;2023-01-29T02:52:50;102392.00;;;-1.00;100.00
34500;BME280;20745;50.882;6.962;2023-01-29T02:57:54;102400.66;;;-1.15;100.00
34500;BME280;20745;50.882;6.962;2023-01-29T03:00:23;102407.72;;;-1.16;100.00
34500;BME280;20745;50.882;6.962;2023-01-29T03:02:59;102406.91;;;-1.16;100.00
34500;BME280;20745;50.882;6.962;2023-01-29T03:06:02;102413.91;;;-1.15;100.00
34500;BME280;20745;50.882;6.962;2023-01-29T03:08:27;102418.41;;;-1.17;100.00
34500;BME280;20745;50.882;6.962;2023-01-29T03:11:05;102425.44;;;-1.16;100.00
34500;BME280;20745;50.882;6.962;2023-01-29T03:16:13;102425.59;;;-1.19;100.00
34500;BME280;20745;50.882;6.962;2023-01-29T03:18:45;102438.84;;;-1.19;100.00
34500;BME280;20745;50.882;6.962;2023-01-29T03:21:17;102437.97;;;-1.20;100.00
34500;BME280;20745;50.882;6.962;2023-01-29T03:24:03;102444.38;;;-1.25;100.00
34500;BME280;20745;50.882;6.962;2023-01-29T03:26:49;102436.50;;;-1.27;100.00
34500;BME280;20745;50.882;6.962;2023-01-29T03:29:35;102425.16;;;-1.30;100.00
34500;BME280;20745;50.882;6.962;2023-01-29T03:32:22;102408.47;;;-1.32;100.00
34500;BME280;20745;50.882;6.962;2023-01-29T03:34:53;102399.19;;;-1.42;100.00
34500;BME280;20745;50.882;6.962;2023-01-29T03:37:30;102394.88;;;-1.45;100.00
34500;BME280;20745;50.882;6.962;2023-01-29T03:40:03;102397.84;;;-1.52;100.00
34500;BME280;20745;50.882;6.962;2023-01-29T03:42:37;102397.44;;;-1.43;100.00
34500;BME280;20745;50.882;6.962;2023-01-29T03:47:43;102389.78;;;-1.29;100.00
34500;BME280;20745;50.882;6.962;2023-01-29T03:52:59;102397.13;;;-1.36;100.00
34500;BME280;20745;50.882;6.962;2023-01-29T04:00:57;102392.97;;;-1.21;100.00
34500;BME280;20745;50.882;6.962;2023-01-29T04:03:36;102403.56;;;-1.21;100.00
34500;BME280;20745;50.882;6.962;2023-01-29T04:06:12;102405.28;;;-1.20;100.00
34500;BME280;20745;50.882;6.962;2023-01-29T04:08:44;102407.88;;;-1.19;100.00
34500;BME280;20745;50.882;6.962;2023-01-29T04:11:13;102410.44;;;-1.17;100.00
34500;BME280;20745;50.882;6.962;2023-01-29T04:13:41;102416.88;;;-1.23;100.00
34500;BME280;20745;50.882;6.962;2023-01-29T04:16:09;102399.66;;;-1.33;100.00
34500;BME280;20745;50.882;6.962;2023-01-29T04:18:38;102392.81;;;-1.38;100.00
34500;BME280;20745;50.882;6.962;2023-01-29T04:21:04;102395.94;;;-1.29;100.00
34500;BME280;20745;50.882;6.962;2023-01-29T04:23:32;102404.00;;;-1.32;100.00
34500;BME280;20745;50.882;6.962;2023-01-29T04:26:06;102395.34;;;-1.35;100.00
34500;BME280;20745;50.882;6.962;2023-01-29T04:31:22;102380.44;;;-1.38;100.00
34500;BME280;20745;50.882;6.962;2023-01-29T04:39:27;102356.91;;;-1.45;100.00
34500;BME280;20745;50.882;6.962;2023-01-29T04:44:45;102355.53;;;-1.34;100.00
34500;BME280;20745;50.882;6.962;2023-01-29T04:50:23;102355.47;;;-1.32;100.00
34500;BME280;20745;50.882;6.962;2023-01-29T04:53:04;102357.00;;;-1.27;100.00
34500;BME280;20745;50.882;6.962;2023-01-29T04:58:04;102359.56;;;-1.25;100.00
34500;BME280;20745;50.882;6.962;2023-01-29T05:00:39;102370.44;;;-1.31;100.00
34500;BME280;20745;50.882;6.962;2023-01-29T05:03:07;102368.34;;;-1.23;100.00
34500;BME280;20745;50.882;6.962;2023-01-29T05:05:35;102361.41;;;-1.27;100.00
34500;BME280;20745;50.882;6.962;2023-01-29T05:08:01;102353.28;;;-1.43;100.00
34500;BME280;20745;50.882;6.962;2023-01-29T05:10:29;102341.28;;;-1.51;100.00
34500;BME280;20745;50.882;6.962;2023-01-29T05:12:57;102328.72;;;-1.46;100.00
34500;BME280;20745;50.882;6.962;2023-01-29T05:15:26;102337.56;;;-1.47;100.00
34500;BME280;20745;50.882;6.962;2023-01-29T05:17:55;102344.19;;;-1.37;100.00
34500;BME280;20745;50.882;6.962;2023-01-29T05:20:29;102343.94;;;-1.31;100.00
34500;BME280;20745;50.882;6.962;2023-01-29T05:22:57;102340.63;;;-1.36;100.00
34500;BME280;20745;50.882;6.962;2023-01-29T05:25:24;102346.19;;;-1.42;100.00
34500;BME280;20745;50.882;6.962;2023-01-29T05:27:51;102340.03;;;-1.43;100.00
34500;BME280;20745;50.882;6.962;2023-01-29T05:30:31;102346.84;;;-1.57;100.00
34500;BME280;20745;50.882;6.962;2023-01-29T05:32:58;102354.59;;;-1.53;100.00
34500;BME280;20745;50.882;6.962;2023-01-29T05:35:24;102359.13;;;-1.35;100.00
34500;BME280;20745;50.882;6.962;2023-01-29T05:37:51;102343.06;;;-1.32;100.00
34500;BME280;20745;50.882;6.962;2023-01-29T05:40:18;102333.41;;;-1.33;100.00
34500;BME280;20745;50.882;6.962;2023-01-29T05:42:44;102334.28;;;-1.32;100.00
34500;BME280;20745;50.882;6.962;2023-01-29T05:45:11;102329.97;;;-1.35;100.00
34500;BME280;20745;50.882;6.962;2023-01-29T05:47:40;102331.34;;;-1.26;100.00
34500;BME280;20745;50.882;6.962;2023-01-29T05:50:07;102332.94;;;-1.22;100.00
34500;BME280;20745;50.882;6.962;2023-01-29T05:52:35;102342.53;;;-1.20;100.00
34500;BME280;20745;50.882;6.962;2023-01-29T05:55:01;102340.75;;;-1.19;100.00
34500;BME280;20745;50.882;6.962;2023-01-29T05:57:28;102340.34;;;-1.30;100.00
34500;BME280;20745;50.882;6.962;2023-01-29T05:59:54;102335.59;;;-1.22;100.00
34500;BME280;20745;50.882;6.962;2023-01-29T06:02:21;102331.75;;;-1.35;100.00
34500;BME280;20745;50.882;6.962;2023-01-29T06:04:50;102335.78;;;-1.27;100.00
34500;BME280;20745;50.882;6.962;2023-01-29T06:07:17;102333.13;;;-1.27;100.00
34500;BME280;20745;50.882;6.962;2023-01-29T06:09:44;102333.47;;;-1.34;100.00
34500;BME280;20745;50.882;6.962;2023-01-29T06:12:10;102339.25;;;-1.25;100.00
34500;BME280;20745;50.882;6.962;2023-01-29T06:14:37;102342.72;;;-1.24;100.00
34500;BME280;20745;50.882;6.962;2023-01-29T06:17:03;102340.88;;;-1.22;100.00
34500;BME280;20745;50.882;6.962;2023-01-29T06:19:33;102345.19;;;-1.20;100.00
34500;BME280;20745;50.882;6.962;2023-01-29T06:21:59;102341.66;;;-1.20;100.00
34500;BME280;20745;50.882;6.962;2023-01-29T06:24:25;102340.34;;;-1.30;100.00
34500;BME280;20745;50.882;6.962;2023-01-29T06:26:52;102333.47;;;-1.34;100.00
34500;BME280;20745;50.882;6.962;2023-01-29T06:29:25;102333.47;;;-1.34;100.00
34500;BME280;20745;50.882;6.962;2023-01-29T06:31:51;102338.75;;;-1.34;100.00
34500;BME280;20745;50.882;6.962;2023-01-29T06:34:18;102327.38;;;-1.36;100.00
34500;BME280;20745;50.882;6.962;2023-01-29T06:36:44;102334.34;;;-1.34;100.00
34500;BME280;20745;50.882;6.962;2023-01-29T06:39:11;102341.47;;;-1.36;100.00
34500;BME280;20745;50.882;6.962;2023-01-29T06:41:37;102350.44;;;-1.38;100.00
34500;BME280;20745;50.882;6.962;2023-01-29T06:44:04;102352.50;;;-1.45;100.00
34500;BME280;20745;50.882;6.962;2023-01-29T06:46:30;102362.28;;;-1.47;100.00
34500;BME280;20745;50.882;6.962;2023-01-29T06:48:57;102377.78;;;-1.58;100.00
34500;BME280;20745;50.882;6.962;2023-01-29T06:51:25;102381.94;;;-1.72;100.00
34500;BME280;20745;50.882;6.962;2023-01-29T06:53:51;102399.13;;;-1.82;100.00
34500;BME280;20745;50.882;6.962;2023-01-29T06:56:19;102408.22;;;-1.89;100.00
34500;BME280;20745;50.882;6.962;2023-01-29T06:58:46;102410.13;;;-1.93;100.00
34500;BME280;20745;50.882;6.962;2023-01-29T07:01:12;102405.59;;;-1.89;100.00
34500;BME280;20745;50.882;6.962;2023-01-29T07:03:59;102402.53;;;-1.80;100.00
34500;BME280;20745;50.882;6.962;2023-01-29T07:06:28;102405.75;;;-1.72;100.00
34500;BME280;20745;50.882;6.962;2023-01-29T07:08:55;102407.16;;;-1.64;100.00
34500;BME280;20745;50.882;6.962;2023-01-29T07:11:22;102397.16;;;-1.57;100.00
34500;BME280;20745;50.882;6.962;2023-01-29T07:13:48;102395.38;;;-1.57;100.00
34500;BME280;20745;50.882;6.962;2023-01-29T07:16:14;102383.41;;;-1.45;100.00
34500;BME280;20745;50.882;6.962;2023-01-29T07:18:41;102388.59;;;-1.42;100.00
34500;BME280;20745;50.882;6.962;2023-01-29T07:21:07;102378.78;;;-1.40;100.00
34500;BME280;20745;50.882;6.962;2023-01-29T07:23:35;102376.88;;;-1.37;100.00
34500;BME280;20745;50.882;6.962;2023-01-29T07:26:02;102379.06;;;-1.26;100.00
34500;BME280;20745;50.882;6.962;2023-01-29T07:28:29;102382.63;;;-1.27;100.00
34500;BME280;20745;50.882;6.962;2023-01-29T07:30:56;102382.50;;;-1.24;100.00
34500;BME280;20745;50.882;6.962;2023-01-29T07:33:23;102387.28;;;-1.12;100.00
34500;BME280;20745;50.882;6.962;2023-01-29T07:35:52;102390.25;;;-1.00;100.00
34500;BME280;20745;50.882;6.962;2023-01-29T07:38:18;102384.47;;;-0.89;100.00
34500;BME280;20745;50.882;6.962;2023-01-29T07:40:45;102384.34;;;-0.86;100.00
34500;BME280;20745;50.882;6.962;2023-01-29T07:43:11;102391.03;;;-0.78;100.00
34500;BME280;20745;50.882;6.962;2023-01-29T07:45:38;102386.06;;;-0.67;100.00
34500;BME280;20745;50.882;6.962;2023-01-29T07:48:09;102389.97;;;-0.55;100.00
34500;BME280;20745;50.882;6.962;2023-01-29T07:50:38;102383.56;;;-0.51;100.00
34500;BME280;20745;50.882;6.962;2023-01-29T07:53:04;102393.78;;;-0.42;100.00
34500;BME280;20745;50.882;6.962;2023-01-29T07:55:31;102395.28;;;-0.37;100.00
34500;BME280;20745;50.882;6.962;2023-01-29T07:58:01;102398.44;;;-0.29;100.00
34500;BME280;20745;50.882;6.962;2023-01-29T08:00:28;102392.13;;;-0.26;100.00
34500;BME280;20745;50.882;6.962;2023-01-29T08:03:02;102381.84;;;-0.15;100.00
34500;BME280;20745;50.882;6.962;2023-01-29T08:05:29;102371.56;;;-0.04;100.00
34500;BME280;20745;50.882;6.962;2023-01-29T08:07:55;102375.03;;;-0.02;100.00
34500;BME280;20745;50.882;6.962;2023-01-29T08:10:32;102373.00;;;0.03;100.00
34500;BME280;20745;50.882;6.962;2023-01-29T08:12:59;102365.69;;;0.08;100.00
34500;BME280;20745;50.882;6.962;2023-01-29T08:15:37;102370.19;;;0.06;100.00
34500;BME280;20745;50.882;6.962;2023-01-29T08:18:26;102370.03;;;0.09;100.00
34500;BME280;20745;50.882;6.962;2023-01-29T08:21:01;102384.13;;;0.11;100.00
34500;BME280;20745;50.882;6.962;2023-01-29T08:23:27;102374.69;;;0.23;100.00
34500;BME280;20745;50.882;6.962;2023-01-29T08:25:54;102372.66;;;0.28;100.00
34500;BME280;20745;50.882;6.962;2023-01-29T08:28:20;102367.13;;;0.32;100.00
34500;BME280;20745;50.882;6.962;2023-01-29T08:30:47;102360.84;;;0.33;100.00
34500;BME280;20745;50.882;6.962;2023-01-29T08:33:13;102379.53;;;0.32;100.00
34500;BME280;20745;50.882;6.962;2023-01-29T08:35:41;102375.97;;;0.33;100.00
34500;BME280;20745;50.882;6.962;2023-01-29T08:38:07;102384.53;;;0.38;100.00
34500;BME280;20745;50.882;6.962;2023-01-29T08:40:34;102373.69;;;0.42;100.00
34500;BME280;20745;50.882;6.962;2023-01-29T08:43:04;102378.84;;;0.45;100.00
34500;BME280;20745;50.882;6.962;2023-01-29T08:45:35;102380.50;;;0.48;100.00
34500;BME280;20745;50.882;6.962;2023-01-29T08:48:02;102376.06;;;0.48;100.00
34500;BME280;20745;50.882;6.962;2023-01-29T08:50:28;102365.56;;;0.45;100.00
34500;BME280;20745;50.882;6.962;2023-01-29T08:52:56;102370.88;;;0.45;100.00
34500;BME280;20745;50.882;6.962;2023-01-29T08:55:23;102374.25;;;0.49;100.00
34500;BME280;20745;50.882;6.962;2023-01-29T08:57:50;102360.75;;;0.70;100.00
34500;BME280;20745;50.882;6.962;2023-01-29T09:00:16;102360.56;;;0.73;100.00
34500;BME280;20745;50.882;6.962;2023-01-29T09:02:45;102365.25;;;0.68;100.00
34500;BME280;20745;50.882;6.962;2023-01-29T09:05:11;102364.16;;;0.72;100.00
34500;BME280;20745;50.882;6.962;2023-01-29T09:07:37;102359.41;;;0.79;100.00
34500;BME280;20745;50.882;6.962;2023-01-29T09:10:04;102354.69;;;0.84;100.00
34500;BME280;20745;50.882;6.962;2023-01-29T09:12:30;102364.16;;;0.89;100.00
34500;BME280;20745;50.882;6.962;2023-01-29T09:14:57;102359.13;;;1.00;100.00
34500;BME280;20745;50.882;6.962;2023-01-29T09:17:23;102363.28;;;1.06;100.00
34500;BME280;20745;50.882;6.962;2023-01-29T09:19:50;102365.16;;;1.04;100.00
34500;BME280;20745;50.882;6.962;2023-01-29T09:22:18;102372.00;;;1.08;100.00
34500;BME280;20745;50.882;6.962;2023-01-29T09:24:46;102362.09;;;1.11;100.00
34500;BME280;20745;50.882;6.962;2023-01-29T09:27:12;102359.44;;;1.11;100.00
34500;BME280;20745;50.882;6.962;2023-01-29T09:29:40;102362.09;;;1.11;100.00
34500;BME280;20745;50.882;6.962;2023-01-29T09:32:06;102354.63;;;1.18;100.00
34500;BME280;20745;50.882;6.962;2023-01-29T09:34:33;102348.47;;;1.17;100.00
34500;BME280;20745;50.882;6.962;2023-01-29T09:37:00;102349.94;;;1.23;100.00
34500;BME280;20745;50.882;6.962;2023-01-29T09:39:26;102348.91;;;1.25;100.00
34500;BME280;20745;50.882;6.962;2023-01-29T09:41:58;102338.09;;;1.28;100.00
34500;BME280;20745;50.882;6.962;2023-01-29T09:47:13;102341.53;;;1.30;100.00
34500;BME280;20745;50.882;6.962;2023-01-29T09:49:42;102342.38;;;1.46;100.00
34500;BME280;20745;50.882;6.962;2023-01-29T09:52:24;102334.69;;;1.57;100.00
34500;BME280;20745;50.882;6.962;2023-01-29T09:57:27;102329.53;;;1.70;100.00
34500;BME280;20745;50.882;6.962;2023-01-29T09:59:56;102332.91;;;1.73;100.00
34500;BME280;20745;50.882;6.962;2023-01-29T10:05:06;102320.25;;;1.77;100.00
34500;BME280;20745;50.882;6.962;2023-01-29T10:10:28;102293.75;;;1.89;100.00
34500;BME280;20745;50.882;6.962;2023-01-29T10:13:23;102294.19;;;1.97;100.00
34500;BME280;20745;50.882;6.962;2023-01-29T10:23:42;102283.78;;;2.08;100.00
34500;BME280;20745;50.882;6.962;2023-01-29T10:26:12;102271.72;;;2.17;100.00
34500;BME280;20745;50.882;6.962;2023-01-29T10:28:43;102284.69;;;2.23;100.00
34500;BME280;20745;50.882;6.962;2023-01-29T10:31:13;102285.75;;;2.34;99.50
34500;BME280;20745;50.882;6.962;2023-01-29T10:33:44;102284.47;;;2.55;100.00
34500;BME280;20745;50.882;6.962;2023-01-29T10:36:49;102294.59;;;2.65;98.52
34500;BME280;20745;50.882;6.962;2023-01-29T10:39:21;102288.28;;;2.66;99.59
34500;BME280;20745;50.882;6.962;2023-01-29T10:44:39;102290.97;;;2.80;98.51
34500;BME280;20745;50.882;6.962;2023-01-29T10:47:16;102290.03;;;2.81;97.45
34500;BME280;20745;50.882;6.962;2023-01-29T11:00:11;102270.38;;;2.53;97.38
34500;BME280;20745;50.882;6.962;2023-01-29T11:02:44;102266.59;;;2.58;98.60
34500;BME280;20745;50.882;6.962;2023-01-29T11:08:07;102260.09;;;2.62;99.48
34500;BME280;20745;50.882;6.962;2023-01-29T11:10:43;102246.75;;;2.62;97.53
34500;BME280;20745;50.882;6.962;2023-01-29T11:13:13;102248.09;;;2.69;98.64
34500;BME280;20745;50.882;6.962;2023-01-29T11:15:40;102233.81;;;2.70;95.97
34500;BME280;20745;50.882;6.962;2023-01-29T11:18:08;102235.91;;;2.79;97.66
34500;BME280;20745;50.882;6.962;2023-01-29T11:20:41;102222.84;;;2.74;96.42
34500;BME280;20745;50.882;6.962;2023-01-29T11:23:28;102220.69;;;2.81;98.75
34500;BME280;20745;50.882;6.962;2023-01-29T11:25:55;102219.91;;;2.93;96.90
34500;BME280;20745;50.882;6.962;2023-01-29T11:28:39;102222.56;;;3.07;97.52
34500;BME280;20745;50.882;6.962;2023-01-29T11:31:16;102214.34;;;3.10;96.51
34500;BME280;20745;50.882;6.962;2023-01-29T11:33:44;102203.75;;;3.22;96.31
34500;BME280;20745;50.882;6.962;2023-01-29T11:36:31;102212.59;;;3.23;94.96
34500;BME280;20745;50.882;6.962;2023-01-29T11:39:09;102204.25;;;3.15;95.16
34500;BME280;20745;50.882;6.962;2023-01-29T11:44:33;102192.97;;;3.24;94.15
34500;BME280;20745;50.882;6.962;2023-01-29T11:49:53;102180.75;;;3.34;93.15
34500;BME280;20745;50.882;6.962;2023-01-29T11:52:21;102183.13;;;3.38;93.36
34500;BME280;20745;50.882;6.962;2023-01-29T11:54:56;102176.81;;;3.39;91.60
34500;BME280;20745;50.882;6.962;2023-01-29T11:59:50;102174.88;;;3.41;90.14
34500;BME280;20745;50.882;6.962;2023-01-29T12:02:37;102173.28;;;3.39;91.34
34500;BME280;20745;50.882;6.962;2023-01-29T12:05:14;102169.44;;;3.43;92.25
34500;BME280;20745;50.882;6.962;2023-01-29T12:07:42;102159.84;;;3.79;97.26
34500;BME280;20745;50.882;6.962;2023-01-29T12:10:55;102152.44;;;4.09;100.00
34500;BME280;20745;50.882;6.962;2023-01-29T12:15:32;102143.78;;;4.18;94.61
34500;BME280;20745;50.882;6.962;2023-01-29T12:18:01;102141.63;;;4.36;95.98
34500;BME280;20745;50.882;6.962;2023-01-29T12:20:32;102131.47;;;4.41;95.75
34500;BME280;20745;50.882;6.962;2023-01-29T12:23:02;102136.59;;;4.44;90.81
34500;BME280;20745;50.882;6.962;2023-01-29T12:25:40;102136.59;;;4.44;92.82
34500;BME280;20745;50.882;6.962;2023-01-29T12:28:16;102130.50;;;4.42;90.47
34500;BME280;20745;50.882;6.962;2023-01-29T12:31:01;102132.97;;;4.32;90.09
34500;BME280;20745;50.882;6.962;2023-01-29T12:33:35;102110.06;;;4.16;90.60
34500;BME280;20745;50.882;6.962;2023-01-29T12:38:30;102100.88;;;4.07;90.84
34500;BME280;20745;50.882;6.962;2023-01-29T12:41:03;102084.19;;;4.04;90.19
34500;BME280;20745;50.882;6.962;2023-01-29T12:43:37;102075.97;;;4.07;90.68
34500;BME280;20745;50.882;6.962;2023-01-29T12:46:10;102069.13;;;4.15;92.36
34500;BME280;20745;50.882;6.962;2023-01-29T12:48:42;102066.00;;;4.09;90.01
34500;BME280;20745;50.882;6.962;2023-01-29T12:51:10;102054.88;;;4.15;89.33
34500;BME280;20745;50.882;6.962;2023-01-29T12:54:07;102048.16;;;4.09;89.05
34500;BME280;20745;50.882;6.962;2023-01-29T12:56:56;102036.16;;;4.15;90.76
34500;BME280;20745;50.882;6.962;2023-01-29T12:59:44;102040.13;;;4.22;90.97
34500;BME280;20745;50.882;6.962;2023-01-29T13:02:33;102032.09;;;4.22;90.10
34500;BME280;20745;50.882;6.962;2023-01-29T13:05:24;102031.22;;;4.21;90.32
34500;BME280;20745;50.882;6.962;2023-01-29T13:08:09;102029.63;;;4.19;89.95
34500;BME280;20745;50.882;6.962;2023-01-29T13:10:42;102026.84;;;4.20;90.11
34500;BME280;20745;50.882;6.962;2023-01-29T13:15:43;102014.28;;;4.10;90.76
34500;BME280;20745;50.882;6.962;2023-01-29T13:18:22;102010.63;;;4.11;90.26
34500;BME280;20745;50.882;6.962;2023-01-29T13:20:56;102015.09;;;4.10;91.17
34500;BME280;20745;50.882;6.962;2023-01-29T13:23:31;102016.19;;;4.08;89.47
34500;BME280;20745;50.882;6.962;2023-01-29T13:25:59;102005.50;;;4.08;91.14
34500;BME280;20745;50.882;6.962;2023-01-29T13:28:28;101998.88;;;4.01;91.21
34500;BME280;20745;50.882;6.962;2023-01-29T13:33:39;101990.06;;;4.24;90.85
34500;BME280;20745;50.882;6.962;2023-01-29T13:36:06;101979.56;;;4.33;90.59
34500;BME280;20745;50.882;6.962;2023-01-29T13:38:39;101979.97;;;4.40;89.31
34500;BME280;20745;50.882;6.962;2023-01-29T13:41:07;101970.00;;;4.42;89.96
34500;BME280;20745;50.882;6.962;2023-01-29T13:43:37;101973.53;;;4.42;89.48
34500;BME280;20745;50.882;6.962;2023-01-29T13:46:12;101959.84;;;4.47;89.12
34500;BME280;20745;50.882;6.962;2023-01-29T13:48:41;101952.53;;;4.49;90.29
34500;BME280;20745;50.882;6.962;2023-01-29T13:51:30;101959.88;;;4.58;89.71
34500;BME280;20745;50.882;6.962;2023-01-29T13:54:02;101960.66;;;4.60;89.81
34500;BME280;20745;50.882;6.962;2023-01-29T13:59:00;101948.75;;;4.64;88.98
34500;BME280;20745;50.882;6.962;2023-01-29T14:04:23;101945.44;;;4.60;90.56
34500;BME280;20745;50.882;6.962;2023-01-29T14:06:57;101945.44;;;4.60;91.62
34500;BME280;20745;50.882;6.962;2023-01-29T14:12:49;101944.59;;;4.60;90.83
34500;BME280;20745;50.882;6.962;2023-01-29T14:14:57;101941.81;;;4.61;91.39
34500;BME280;20745;50.882;6.962;2023-01-29T14:17:26;101943.63;;;4.61;92.07
34500;BME280;20745;50.882;6.962;2023-01-29T14:20:17;101943.84;;;4.58;93.62
34500;BME280;20745;50.882;6.962;2023-01-29T14:22:57;101949.69;;;4.63;92.50
34500;BME280;20745;50.882;6.962;2023-01-29T14:25:29;101948.09;;;4.60;93.81
34500;BME280;20745;50.882;6.962;2023-01-29T14:27:58;101954.44;;;4.59;93.28
34500;BME280;20745;50.882;6.962;2023-01-29T14:30:29;101952.09;;;4.55;94.89
34500;BME280;20745;50.882;6.962;2023-01-29T14:32:56;101954.75;;;4.55;94.69
34500;BME280;20745;50.882;6.962;2023-01-29T14:35:41;101950.38;;;4.54;97.76
34500;BME280;20745;50.882;6.962;2023-01-29T14:38:14;101952.53;;;4.49;95.94
34500;BME280;20745;50.882;6.962;2023-01-29T14:41:04;101948.59;;;4.42;95.29
34500;BME280;20745;50.882;6.962;2023-01-29T14:43:50;101950.78;;;4.37;94.91
34500;BME280;20745;50.882;6.962;2023-01-29T14:52:37;101945.66;;;4.34;94.12
34500;BME280;20745;50.882;6.962;2023-01-29T14:55:37;101945.13;;;4.29;92.50